createdAt,value
2022-10-25T00:01:18.194Z,76.37
2022-10-25T00:03:45.877Z,76.72
2022-10-25T00:06:13.245Z,75.21
2022-10-25T00:08:40.602Z,77.82
2022-10-25T00:11:08.507Z,80.03
2022-10-25T00:13:35.930Z,80.97
2022-10-25T00:16:03.316Z,80.26
2022-10-25T00:18:30.913Z,80.04
2022-10-25T00:20:58.269Z,81.60
2022-10-25T00:23:25.623Z,84.34
2022-10-25T00:26:07.174Z,82.29
2022-10-25T00:28:34.577Z,83.70
2022-10-25T00:31:03.303Z,79.67
2022-10-25T00:33:31.507Z,80.17
2022-10-25T00:36:06.632Z,79.66
2022-10-25T00:38:34.242Z,79.08
2022-10-25T00:41:01.606Z,79.93
2022-10-25T00:43:34.995Z,76.75
2022-10-25T00:46:05.466Z,78.53
2022-10-25T00:48:32.926Z,76.43
2022-10-25T00:51:00.260Z,78.40
2022-10-25T00:53:29.593Z,77.26
2022-10-25T00:56:10.404Z,77.68
2022-10-25T00:58:38.004Z,79.22
2022-10-25T01:01:06.437Z,83.19
2022-10-25T01:03:34.658Z,79.81
2022-10-25T01:06:02.290Z,78.45
2022-10-25T01:08:29.602Z,81.94
2022-10-25T01:10:56.904Z,81.82
2022-10-25T01:13:24.502Z,79.55
2022-10-25T01:16:13.343Z,82.71
2022-10-25T01:19:16.313Z,83.96
2022-10-25T01:21:56.726Z,85.42
2022-10-25T01:24:54.848Z,83.42
2022-10-25T01:27:43.464Z,83.92
2022-10-25T01:30:23.485Z,83.10
2022-10-25T01:32:58.810Z,83.33
2022-10-25T01:35:29.997Z,83.89
2022-10-25T01:38:05.765Z,83.63
2022-10-25T01:40:39.314Z,82.01
2022-10-25T01:43:38.997Z,86.23
2022-10-25T01:46:34.317Z,87.61
2022-10-25T01:49:06.645Z,86.97
2022-10-25T01:51:37.527Z,86.76
2022-10-25T01:54:17.664Z,86.67
2022-10-25T01:57:17.476Z,83.53
2022-10-25T02:00:08.385Z,84.92
2022-10-25T02:02:49.044Z,81.21
2022-10-25T02:05:44.528Z,79.92
2022-10-25T02:08:43.210Z,79.72
2022-10-25T02:11:23.978Z,79.31
2022-10-25T02:14:00.424Z,78.08
2022-10-25T02:16:49.425Z,80.22
2022-10-25T02:19:21.195Z,84.86
2022-10-25T02:21:48.785Z,83.11
2022-10-25T02:24:18.125Z,83.73
2022-10-25T02:26:45.489Z,87.83
2022-10-25T02:29:13.100Z,89.48
2022-10-25T02:31:40.593Z,93.07
2022-10-25T02:34:07.963Z,96.28
2022-10-25T02:36:35.557Z,93.62
2022-10-25T02:39:03.288Z,90.64
2022-10-25T02:41:30.607Z,90.38
2022-10-25T02:43:58.173Z,88.19
2022-10-25T02:46:25.563Z,89.21
2022-10-25T02:48:52.899Z,87.91
2022-10-25T02:51:20.545Z,87.57
2022-10-25T02:53:48.098Z,90.87
2022-10-25T02:56:17.172Z,92.00
2022-10-25T02:58:44.885Z,96.51
2022-10-25T03:01:13.129Z,97.90
2022-10-25T03:03:40.746Z,99.16
2022-10-25T03:06:08.567Z,98.92
2022-10-25T03:08:35.980Z,95.29
2022-10-25T03:11:03.427Z,94.68
2022-10-25T03:13:31.184Z,92.00
2022-10-25T03:15:58.479Z,89.04
2022-10-25T03:18:25.897Z,86.44
2022-10-25T03:20:57.037Z,87.94
2022-10-25T03:23:24.586Z,90.95
2022-10-25T03:25:54.283Z,86.10
2022-10-25T03:28:22.096Z,86.16
2022-10-25T03:30:49.402Z,85.80
2022-10-25T03:33:16.768Z,90.61
2022-10-25T03:35:44.353Z,91.56
2022-10-25T03:38:11.693Z,87.76
2022-10-25T03:40:39.024Z,86.58
2022-10-25T03:43:06.584Z,90.09
2022-10-25T03:45:33.889Z,90.77
2022-10-25T03:48:01.211Z,89.57
2022-10-25T03:50:28.833Z,92.42
2022-10-25T03:52:56.245Z,91.06
2022-10-25T03:55:23.580Z,93.16
2022-10-25T03:57:51.164Z,92.94
2022-10-25T04:00:18.538Z,89.21
2022-10-25T04:02:46.193Z,86.48
2022-10-25T04:05:13.542Z,93.57
2022-10-25T04:07:40.853Z,96.59
2022-10-25T04:10:08.909Z,91.15
2022-10-25T04:12:36.234Z,91.10
2022-10-25T04:15:03.690Z,91.54
2022-10-25T04:17:31.329Z,90.90
2022-10-25T04:19:58.740Z,86.31
2022-10-25T04:22:26.093Z,88.51
2022-10-25T04:24:53.693Z,86.43
2022-10-25T04:27:20.993Z,86.87
2022-10-25T04:29:48.321Z,85.91
2022-10-25T04:32:15.913Z,85.91
2022-10-25T04:34:43.220Z,85.46
2022-10-25T04:37:10.533Z,82.92
2022-10-25T04:39:38.090Z,85.23
2022-10-25T04:42:05.507Z,84.63
2022-10-25T04:44:32.834Z,83.81
2022-10-25T04:47:00.390Z,82.28
2022-10-25T04:49:27.734Z,84.86
2022-10-25T04:51:55.057Z,85.53
2022-10-25T04:54:23.085Z,84.52
2022-10-25T04:56:50.401Z,82.25
2022-10-25T04:59:17.765Z,81.38
2022-10-25T05:01:45.451Z,81.03
2022-10-25T05:04:12.885Z,82.71
2022-10-25T05:06:40.179Z,79.82
2022-10-25T05:09:07.753Z,80.61
2022-10-25T05:14:07.573Z,81.02
2022-10-25T05:16:35.351Z,83.44
2022-10-25T05:19:02.688Z,84.30
2022-10-25T05:21:31.124Z,81.62
2022-10-25T05:24:01.669Z,81.34
2022-10-25T05:26:30.503Z,79.24
2022-10-25T05:28:58.067Z,79.81
2022-10-25T05:31:26.904Z,80.03
2022-10-25T05:33:56.463Z,78.73
2022-10-25T05:36:23.806Z,77.58
2022-10-25T05:38:51.278Z,78.71
2022-10-25T05:41:19.237Z,77.54
2022-10-25T05:43:46.686Z,77.14
2022-10-25T05:46:19.238Z,77.33
2022-10-25T05:48:48.927Z,77.10
2022-10-25T05:51:35.159Z,76.67
2022-10-25T05:54:10.458Z,77.06
2022-10-25T05:56:37.920Z,76.09
2022-10-25T05:59:09.866Z,76.44
2022-10-25T06:01:41.418Z,75.67
2022-10-25T06:04:09.590Z,77.01
2022-10-25T06:06:37.462Z,76.18
2022-10-25T06:09:05.246Z,76.02
2022-10-25T06:11:33.157Z,75.81
2022-10-25T06:14:00.537Z,75.77
2022-10-25T06:16:28.024Z,75.11
2022-10-25T06:18:55.829Z,75.21
2022-10-25T06:21:24.777Z,76.43
2022-10-25T06:23:52.204Z,77.43
2022-10-25T06:26:24.036Z,76.04
2022-10-25T06:28:52.492Z,76.88
2022-10-25T06:31:20.155Z,77.52
2022-10-25T06:33:47.584Z,77.00
2022-10-25T06:36:16.916Z,76.62
2022-10-25T06:38:45.258Z,75.55
2022-10-25T06:41:26.208Z,77.74
2022-10-25T06:43:54.197Z,74.56
2022-10-25T06:46:23.739Z,74.64
2022-10-25T06:48:51.960Z,73.48
2022-10-25T06:51:19.686Z,75.69
2022-10-25T06:53:47.157Z,73.86
2022-10-25T06:56:15.737Z,73.75
2022-10-25T06:58:44.947Z,72.78
2022-10-25T07:01:15.017Z,72.33
2022-10-25T07:03:42.998Z,69.64
2022-10-25T07:06:11.790Z,71.40
2022-10-25T07:08:40.342Z,70.27
2022-10-25T07:11:08.901Z,69.87
2022-10-25T07:13:36.229Z,71.70
2022-10-25T07:16:08.101Z,71.79
2022-10-25T07:18:36.272Z,70.88
2022-10-25T07:21:05.526Z,72.08
2022-10-25T07:23:33.181Z,73.68
2022-10-25T07:26:00.819Z,71.67
2022-10-25T07:28:28.313Z,70.59
2022-10-25T07:30:55.716Z,70.85
2022-10-25T07:33:23.327Z,71.73
2022-10-25T07:36:06.537Z,72.02
2022-10-25T07:38:38.289Z,71.50
2022-10-25T07:41:05.731Z,71.65
2022-10-25T07:43:33.121Z,70.62
2022-10-25T07:46:00.766Z,70.83
2022-10-25T07:48:28.131Z,72.08
2022-10-25T07:50:55.521Z,70.61
2022-10-25T07:53:23.565Z,72.01
2022-10-25T07:55:53.054Z,71.15
2022-10-25T07:58:20.383Z,71.00
2022-10-25T08:00:48.311Z,69.42
2022-10-25T08:03:16.701Z,69.00
2022-10-25T08:05:45.279Z,68.61
2022-10-25T08:08:13.308Z,67.52
2022-10-25T08:10:43.533Z,67.58
2022-10-25T08:13:11.153Z,69.44
2022-10-25T08:15:40.847Z,68.11
2022-10-25T08:18:09.671Z,67.23
2022-10-25T08:20:56.773Z,67.39
2022-10-25T08:23:26.889Z,66.66
2022-10-25T08:25:54.367Z,67.43
2022-10-25T08:28:21.712Z,68.61
2022-10-25T08:30:49.391Z,68.70
2022-10-25T08:33:16.788Z,70.06
2022-10-25T08:35:44.173Z,70.27
2022-10-25T08:38:11.762Z,68.97
2022-10-25T08:40:59.574Z,68.71
2022-10-25T08:43:40.626Z,71.13
2022-10-25T08:46:29.167Z,70.36
2022-10-25T08:49:21.071Z,71.46
2022-10-25T08:51:48.945Z,69.07
2022-10-25T08:54:42.920Z,71.18
2022-10-25T08:57:24.206Z,69.20
2022-10-25T08:59:59.095Z,68.09
2022-10-25T09:02:41.646Z,68.32
2022-10-25T09:05:38.579Z,69.47
2022-10-25T09:08:31.136Z,68.22
2022-10-25T09:11:36.439Z,69.30
2022-10-25T09:14:45.652Z,68.03
2022-10-25T09:17:22.662Z,68.25
2022-10-25T09:20:08.825Z,67.32
2022-10-25T09:22:46.311Z,68.29
2022-10-25T09:25:17.926Z,67.38
2022-10-25T09:27:58.134Z,68.04
2022-10-25T09:30:25.536Z,68.45
2022-10-25T09:32:56.685Z,69.73
2022-10-25T09:35:35.087Z,69.50
2022-10-25T09:38:15.942Z,70.99
2022-10-25T09:41:02.633Z,71.93
2022-10-25T09:43:39.645Z,71.90
2022-10-25T09:46:15.980Z,71.21
2022-10-25T09:48:48.074Z,70.10
2022-10-25T09:51:43.913Z,69.69
2022-10-25T09:54:15.653Z,69.13
2022-10-25T09:56:43.031Z,69.55
2022-10-25T09:59:13.491Z,67.03
2022-10-25T10:01:40.915Z,67.29
2022-10-25T10:04:38.018Z,68.96
2022-10-25T10:07:13.616Z,67.50
2022-10-25T10:09:45.707Z,67.75
2022-10-25T10:12:26.089Z,67.56
2022-10-25T10:14:58.487Z,67.83
2022-10-25T10:17:25.877Z,67.96
2022-10-25T10:20:14.012Z,67.43
2022-10-25T10:22:46.716Z,67.03
2022-10-25T10:25:16.376Z,67.12
2022-10-25T10:27:44.095Z,66.94
2022-10-25T10:30:20.694Z,69.32
2022-10-25T10:32:49.100Z,67.30
2022-10-25T10:35:36.417Z,67.41
2022-10-25T10:38:26.720Z,67.98
2022-10-25T10:41:27.442Z,66.44
2022-10-25T10:44:10.964Z,67.86
2022-10-25T10:46:46.320Z,66.99
2022-10-25T10:49:14.359Z,66.07
2022-10-25T10:51:44.740Z,65.37
2022-10-25T10:54:13.432Z,63.71
2022-10-25T10:56:41.068Z,63.52
2022-10-25T10:59:24.676Z,63.87
2022-10-25T11:01:52.421Z,64.89
2022-10-25T11:04:21.018Z,65.71
2022-10-25T11:06:50.381Z,65.71
2022-10-25T11:09:24.933Z,65.23
2022-10-25T11:12:06.664Z,64.18
2022-10-25T11:14:34.345Z,63.59
2022-10-25T11:17:14.892Z,64.83
2022-10-25T11:20:03.261Z,62.17
2022-10-25T11:22:36.503Z,62.82
2022-10-25T11:25:13.353Z,61.60
2022-10-25T11:27:52.458Z,60.01
2022-10-25T11:30:21.442Z,60.12
2022-10-25T11:33:03.895Z,61.12
2022-10-25T11:35:59.610Z,60.40
2022-10-25T11:38:42.132Z,60.77
2022-10-25T11:41:29.341Z,62.85
2022-10-25T11:44:02.901Z,63.47
2022-10-25T11:46:48.229Z,60.89
2022-10-25T11:49:50.005Z,61.17
2022-10-25T11:52:28.282Z,60.79
2022-10-25T11:54:58.269Z,60.46
2022-10-25T11:57:50.760Z,59.97
2022-10-25T12:00:22.645Z,59.29
2022-10-25T12:02:57.741Z,58.79
2022-10-25T12:05:43.616Z,57.07
2022-10-25T12:08:31.038Z,56.92
2022-10-25T12:11:03.105Z,57.64
2022-10-25T12:13:40.771Z,55.79
2022-10-25T12:16:12.705Z,55.87
2022-10-25T12:18:44.245Z,55.52
2022-10-25T12:21:15.322Z,54.92
2022-10-25T12:23:45.510Z,54.37
2022-10-25T12:26:26.788Z,54.09
2022-10-25T12:28:54.460Z,54.15
2022-10-25T12:31:23.725Z,54.60
2022-10-25T12:33:57.643Z,55.33
2022-10-25T12:36:32.538Z,55.48
2022-10-25T12:39:00.888Z,55.56
2022-10-25T12:41:31.056Z,56.56
2022-10-25T12:44:16.963Z,56.84
2022-10-25T12:47:12.250Z,56.98
2022-10-25T12:50:07.287Z,55.59
2022-10-25T12:52:38.797Z,56.44
2022-10-25T12:55:28.848Z,56.78
2022-10-25T12:58:22.572Z,57.48
2022-10-25T13:00:52.732Z,57.42
2022-10-25T13:03:48.187Z,57.81
2022-10-25T13:06:29.498Z,56.86
2022-10-25T13:09:09.816Z,57.86
2022-10-25T13:11:59.570Z,57.03
2022-10-25T13:14:57.556Z,57.51
2022-10-25T13:17:39.121Z,57.33
2022-10-25T13:22:51.337Z,58.04
2022-10-25T13:25:48.025Z,56.62
2022-10-25T13:28:15.194Z,56.08
2022-10-25T13:30:43.626Z,56.52
2022-10-25T13:33:24.292Z,56.40
2022-10-25T13:35:51.754Z,56.30
2022-10-25T13:38:33.221Z,54.09
2022-10-25T13:41:18.634Z,53.97
2022-10-25T13:44:02.540Z,54.24
2022-10-25T13:46:34.908Z,54.22
2022-10-25T13:49:04.676Z,53.16
2022-10-25T13:51:32.583Z,53.46
2022-10-25T13:54:02.669Z,52.78
2022-10-25T13:56:29.862Z,52.92
2022-10-25T13:58:58.111Z,53.98
2022-10-25T14:01:25.700Z,54.06
2022-10-25T14:03:56.570Z,53.73
2022-10-25T14:06:29.894Z,53.46
2022-10-25T14:09:16.340Z,53.72
2022-10-25T14:11:52.512Z,53.73
2022-10-25T14:14:36.081Z,53.35
2022-10-25T14:17:26.751Z,55.16
2022-10-25T14:19:58.847Z,52.75
2022-10-25T14:22:50.353Z,52.70
2022-10-25T14:25:17.864Z,52.18
2022-10-25T14:27:45.436Z,52.22
2022-10-25T14:32:59.385Z,50.85
2022-10-25T14:35:34.424Z,51.80
2022-10-25T14:38:02.742Z,52.49
2022-10-25T14:40:30.929Z,52.06
2022-10-25T14:43:20.078Z,51.48
2022-10-25T14:46:02.852Z,51.94
2022-10-25T14:48:30.311Z,51.12
2022-10-25T14:50:59.418Z,52.39
2022-10-25T14:53:28.486Z,52.30
2022-10-25T14:56:01.334Z,52.23
2022-10-25T14:58:39.927Z,52.98
2022-10-25T15:01:07.400Z,52.81
2022-10-25T15:03:35.130Z,54.17
2022-10-25T15:06:02.446Z,54.63
2022-10-25T15:08:38.829Z,54.85
2022-10-25T15:11:10.448Z,55.11
2022-10-25T15:13:37.870Z,54.63
2022-10-25T15:16:33.473Z,55.17
2022-10-25T15:19:14.301Z,56.42
2022-10-25T15:21:51.311Z,56.04
2022-10-25T15:24:23.710Z,57.07
2022-10-25T15:26:54.619Z,57.46
2022-10-25T15:29:40.355Z,57.25
2022-10-25T15:32:13.651Z,57.60
2022-10-25T15:34:42.160Z,57.39
2022-10-25T15:37:11.438Z,57.84
2022-10-25T15:39:38.765Z,58.06
2022-10-25T15:42:07.102Z,58.59
2022-10-25T15:44:35.784Z,58.80
2022-10-25T15:47:03.115Z,59.07
2022-10-25T15:52:03.170Z,59.79
2022-10-25T15:54:30.766Z,59.37
2022-10-25T15:56:58.081Z,59.99
2022-10-25T15:59:25.464Z,60.40
2022-10-25T16:01:53.577Z,60.73
2022-10-25T16:04:21.334Z,61.14
2022-10-25T16:06:57.901Z,61.38
2022-10-25T16:09:32.350Z,61.22
2022-10-25T16:11:59.734Z,61.63
2022-10-25T16:14:27.447Z,62.13
2022-10-25T16:16:54.748Z,62.55
2022-10-25T16:19:22.191Z,61.79
2022-10-25T16:21:49.834Z,61.71
2022-10-25T16:24:17.179Z,61.88
2022-10-25T16:26:46.233Z,62.15
2022-10-25T16:29:21.281Z,62.49
2022-10-25T16:31:48.609Z,62.24
2022-10-25T16:34:17.439Z,62.58
2022-10-25T16:36:45.613Z,62.96
2022-10-25T16:39:13.065Z,62.84
2022-10-25T16:41:42.164Z,62.89
2022-10-25T16:44:13.261Z,63.02
2022-10-25T16:46:40.960Z,63.69
2022-10-25T16:49:11.368Z,64.33
2022-10-25T16:51:38.894Z,63.88
2022-10-25T16:54:06.650Z,63.90
2022-10-25T16:56:33.970Z,64.14
2022-10-25T16:59:01.407Z,64.61
2022-10-25T17:01:34.245Z,64.54
2022-10-25T17:04:03.956Z,64.80
2022-10-25T17:06:46.952Z,65.58
2022-10-25T17:09:14.300Z,65.58
2022-10-25T17:11:42.236Z,66.09
2022-10-25T17:14:10.268Z,65.88
2022-10-25T17:16:41.279Z,65.74
2022-10-25T17:19:11.432Z,66.26
2022-10-25T17:21:39.032Z,66.46
2022-10-25T17:24:08.462Z,66.02
2022-10-25T17:26:36.211Z,66.54
2022-10-25T17:29:03.872Z,65.87
2022-10-25T17:31:32.689Z,65.69
2022-10-25T17:34:00.742Z,67.07
2022-10-25T17:36:29.106Z,67.44
2022-10-25T17:38:56.421Z,67.07
2022-10-25T17:41:24.006Z,68.15
2022-10-25T17:43:54.530Z,67.37
2022-10-25T17:46:26.116Z,67.69
2022-10-25T17:48:53.831Z,67.91
2022-10-25T17:51:21.180Z,68.12
2022-10-25T17:53:54.189Z,67.59
2022-10-25T17:56:22.429Z,68.83
2022-10-25T17:58:50.126Z,67.90
2022-10-25T18:01:19.602Z,67.67
2022-10-25T18:03:47.313Z,68.12
2022-10-25T18:06:16.827Z,68.10
2022-10-25T18:08:45.449Z,68.12
2022-10-25T18:11:19.348Z,68.52
2022-10-25T18:13:46.688Z,68.14
2022-10-25T18:16:14.360Z,68.05
2022-10-25T18:18:41.686Z,68.12
2022-10-25T18:21:10.474Z,67.78
2022-10-25T18:23:38.083Z,67.81
2022-10-25T18:26:06.080Z,67.84
2022-10-25T18:28:33.842Z,67.40
2022-10-25T18:31:02.161Z,67.94
2022-10-25T18:33:30.215Z,68.29
2022-10-25T18:36:09.548Z,68.56
2022-10-25T18:38:37.275Z,68.77
2022-10-25T18:41:08.697Z,68.40
2022-10-25T18:43:36.046Z,68.62
2022-10-25T18:46:03.683Z,69.27
2022-10-25T18:48:31.160Z,69.13
2022-10-25T18:51:09.806Z,69.24
2022-10-25T18:53:39.373Z,69.33
2022-10-25T18:56:10.716Z,69.05
2022-10-25T18:58:38.696Z,69.67
2022-10-25T19:01:10.453Z,69.51
2022-10-25T19:03:38.128Z,68.75
2022-10-25T19:06:06.130Z,69.24
2022-10-25T19:08:34.284Z,69.12
2022-10-25T19:11:09.953Z,70.60
2022-10-25T19:13:37.442Z,69.69
2022-10-25T19:16:05.376Z,69.55
2022-10-25T19:18:33.253Z,69.26
2022-10-25T19:21:04.959Z,69.63
2022-10-25T19:23:32.666Z,69.62
2022-10-25T19:26:04.347Z,69.09
2022-10-25T19:28:32.088Z,68.59
2022-10-25T19:31:06.037Z,68.92
2022-10-25T19:33:33.382Z,68.64
2022-10-25T19:36:08.821Z,68.65
2022-10-25T19:38:36.617Z,69.06
2022-10-25T19:41:05.410Z,68.87
2022-10-25T19:43:33.024Z,68.73
2022-10-25T19:46:01.585Z,69.11
2022-10-25T19:48:29.198Z,69.08
2022-10-25T19:50:56.728Z,69.03
2022-10-25T19:53:24.092Z,68.25
2022-10-25T19:56:05.900Z,68.41
2022-10-25T19:58:33.261Z,68.33
2022-10-25T20:01:11.826Z,69.34
2022-10-25T20:03:39.661Z,68.61
2022-10-25T20:06:21.631Z,69.11
2022-10-25T20:08:52.231Z,68.97
2022-10-25T20:11:19.643Z,68.95
2022-10-25T20:13:46.983Z,70.24
2022-10-25T20:16:14.689Z,69.61
2022-10-25T20:18:42.139Z,70.80
2022-10-25T20:21:11.491Z,70.13
2022-10-25T20:23:39.559Z,70.84
2022-10-25T20:26:23.125Z,70.75
2022-10-25T20:28:54.595Z,70.30
2022-10-25T20:31:23.054Z,70.53
2022-10-25T20:33:50.755Z,70.14
2022-10-25T20:36:18.162Z,69.95
2022-10-25T20:38:45.653Z,69.89
2022-10-25T20:41:14.861Z,69.62
2022-10-25T20:43:44.981Z,69.13
2022-10-25T20:46:13.321Z,69.38
2022-10-25T20:48:40.689Z,68.59
2022-10-25T20:51:08.178Z,68.87
2022-10-25T20:53:36.296Z,68.94
2022-10-25T20:56:03.792Z,69.29
2022-10-25T20:58:31.153Z,69.31
2022-10-25T21:00:58.725Z,70.01
2022-10-25T21:03:26.777Z,69.50
2022-10-25T21:05:56.878Z,69.37
2022-10-25T21:08:24.767Z,69.30
2022-10-25T21:11:02.688Z,69.47
2022-10-25T21:13:31.748Z,69.27
2022-10-25T21:15:59.099Z,68.87
2022-10-25T21:18:27.130Z,69.06
2022-10-25T21:20:55.416Z,68.89
2022-10-25T21:23:22.721Z,68.88
2022-10-25T21:25:57.368Z,69.15
2022-10-25T21:28:26.325Z,69.28
2022-10-25T21:30:53.999Z,69.90
2022-10-25T21:33:21.338Z,70.21
2022-10-25T21:35:49.251Z,70.16
2022-10-25T21:38:16.579Z,69.48
2022-10-25T21:40:43.912Z,69.50
2022-10-25T21:43:11.489Z,69.71
2022-10-25T21:45:42.147Z,69.14
2022-10-25T21:48:09.543Z,69.88
2022-10-25T21:50:37.145Z,69.06
2022-10-25T21:53:04.551Z,69.10
2022-10-25T21:55:31.882Z,69.59
2022-10-25T21:57:59.682Z,69.30
2022-10-25T22:00:27.292Z,69.94
2022-10-25T22:02:54.940Z,69.80
2022-10-25T22:05:22.242Z,69.67
2022-10-25T22:07:49.923Z,69.80
2022-10-25T22:10:17.802Z,70.43
2022-10-25T22:12:45.253Z,70.87
2022-10-25T22:15:12.805Z,69.90
2022-10-25T22:17:40.372Z,69.93
2022-10-25T22:20:08.193Z,71.14
2022-10-25T22:22:35.549Z,70.38
2022-10-25T22:25:03.182Z,71.11
2022-10-25T22:27:30.515Z,70.17
2022-10-25T22:29:57.828Z,70.04
2022-10-25T22:32:25.381Z,70.09
2022-10-25T22:34:52.698Z,69.47
2022-10-25T22:37:19.986Z,69.75
2022-10-25T22:39:47.585Z,69.75
2022-10-25T22:42:15.221Z,70.10
2022-10-25T22:44:42.545Z,70.97
2022-10-25T22:47:10.200Z,70.11
2022-10-25T22:49:37.490Z,69.83
2022-10-25T22:52:04.783Z,70.38
2022-10-25T22:54:32.407Z,70.11
2022-10-25T22:56:59.701Z,69.81
2022-10-25T22:59:27.025Z,70.23
2022-10-25T23:01:54.619Z,69.93
2022-10-25T23:04:22.070Z,70.52
2022-10-25T23:06:49.426Z,69.86
2022-10-25T23:09:17.047Z,69.57
2022-10-25T23:11:45.950Z,70.50
2022-10-25T23:14:16.572Z,70.43
2022-10-25T23:16:45.921Z,70.64
2022-10-25T23:19:13.247Z,70.39
2022-10-25T23:21:40.552Z,70.06
2022-10-25T23:24:09.059Z,69.50
2022-10-25T23:26:36.653Z,70.20
2022-10-25T23:29:04.335Z,69.85
2022-10-25T23:31:31.944Z,70.33
2022-10-25T23:34:00.016Z,70.23
2022-10-25T23:36:28.603Z,69.94
2022-10-25T23:38:56.376Z,69.82
2022-10-25T23:41:23.782Z,69.58
2022-10-25T23:43:51.182Z,70.23
2022-10-25T23:46:18.764Z,69.95
2022-10-25T23:48:46.132Z,70.00
2022-10-25T23:51:15.206Z,70.27
2022-10-25T23:53:42.861Z,69.68
2022-10-25T23:56:10.823Z,70.17
2022-10-25T23:58:38.466Z,70.23
